sensor_id;sensor_type;location;lat;lon;timestamp;pressure;altitude;pressure_sealevel;temperature;humidity
35989;BME280;22064;42.672;23.282;2023-02-10T00:01:12;96402.53;;;-7.08;100.00
35989;BME280;22064;42.672;23.282;2023-02-10T00:03:38;96408.97;;;-7.03;100.00
35989;BME280;22064;42.672;23.282;2023-02-10T00:06:06;96403.44;;;-7.09;100.00
35989;BME280;22064;42.672;23.282;2023-02-10T00:08:34;96396.84;;;-7.12;100.00
35989;BME280;22064;42.672;23.282;2023-02-10T00:11:03;96413.81;;;-7.14;100.00
35989;BME280;22064;42.672;23.282;2023-02-10T00:13:29;96408.13;;;-7.17;100.00
35989;BME280;22064;42.672;23.282;2023-02-10T00:15:59;96392.41;;;-7.23;100.00
35989;BME280;22064;42.672;23.282;2023-02-10T00:18:27;96399.16;;;-7.23;100.00
35989;BME280;22064;42.672;23.282;2023-02-10T00:20:53;96402.72;;;-7.11;100.00
35989;BME280;22064;42.672;23.282;2023-02-10T00:23:19;96397.94;;;-7.16;100.00
35989;BME280;22064;42.672;23.282;2023-02-10T00:25:45;96387.19;;;-7.19;100.00
35989;BME280;22064;42.672;23.282;2023-02-10T00:28:11;96397.47;;;-7.08;100.00
35989;BME280;22064;42.672;23.282;2023-02-10T00:30:38;96391.84;;;-6.99;100.00
35989;BME280;22064;42.672;23.282;2023-02-10T00:33:06;96393.75;;;-7.03;100.00
35989;BME280;22064;42.672;23.282;2023-02-10T00:35:32;96390.22;;;-7.14;100.00
35989;BME280;22064;42.672;23.282;2023-02-10T00:37:59;96388.44;;;-7.12;100.00
35989;BME280;22064;42.672;23.282;2023-02-10T00:40:24;96347.47;;;-7.33;100.00
35989;BME280;22064;42.672;23.282;2023-02-10T00:42:52;96380.72;;;-7.11;100.00
35989;BME280;22064;42.672;23.282;2023-02-10T00:45:17;96374.31;;;-7.16;100.00
35989;BME280;22064;42.672;23.282;2023-02-10T00:47:43;96356.69;;;-7.18;100.00
35989;BME280;22064;42.672;23.282;2023-02-10T00:50:09;96362.66;;;-7.05;100.00
35989;BME280;22064;42.672;23.282;2023-02-10T00:52:35;96332.00;;;-7.43;100.00
35989;BME280;22064;42.672;23.282;2023-02-10T00:55:01;96362.75;;;-7.21;100.00
35989;BME280;22064;42.672;23.282;2023-02-10T00:57:27;96367.34;;;-7.27;100.00
35989;BME280;22064;42.672;23.282;2023-02-10T00:59:53;96346.94;;;-7.53;100.00
35989;BME280;22064;42.672;23.282;2023-02-10T01:02:20;96368.34;;;-7.30;100.00
35989;BME280;22064;42.672;23.282;2023-02-10T01:04:46;96364.75;;;-7.26;100.00
35989;BME280;22064;42.672;23.282;2023-02-10T01:07:11;96359.59;;;-7.24;100.00
35989;BME280;22064;42.672;23.282;2023-02-10T01:09:37;96360.06;;;-7.32;100.00
35989;BME280;22064;42.672;23.282;2023-02-10T01:12:03;96363.94;;;-7.40;100.00
35989;BME280;22064;42.672;23.282;2023-02-10T01:14:29;96368.78;;;-7.52;100.00
35989;BME280;22064;42.672;23.282;2023-02-10T01:16:55;96368.59;;;-7.63;100.00
35989;BME280;22064;42.672;23.282;2023-02-10T01:19:21;96363.91;;;-7.55;100.00
35989;BME280;22064;42.672;23.282;2023-02-10T01:21:47;96360.72;;;-7.58;100.00
35989;BME280;22064;42.672;23.282;2023-02-10T01:24:13;96354.94;;;-7.60;100.00
35989;BME280;22064;42.672;23.282;2023-02-10T01:26:39;96355.38;;;-7.68;100.00
35989;BME280;22064;42.672;23.282;2023-02-10T01:29:04;96342.88;;;-7.85;100.00
35989;BME280;22064;42.672;23.282;2023-02-10T01:31:30;96349.75;;;-7.87;100.00
35989;BME280;22064;42.672;23.282;2023-02-10T01:33:56;96336.66;;;-7.94;100.00
35989;BME280;22064;42.672;23.282;2023-02-10T01:36:24;96304.09;;;-8.15;100.00
35989;BME280;22064;42.672;23.282;2023-02-10T01:38:51;96347.22;;;-7.87;100.00
35989;BME280;22064;42.672;23.282;2023-02-10T01:41:20;96348.00;;;-8.01;100.00
35989;BME280;22064;42.672;23.282;2023-02-10T01:43:53;96352.59;;;-8.08;100.00
35989;BME280;22064;42.672;23.282;2023-02-10T01:46:19;96332.50;;;-8.25;100.00
35989;BME280;22064;42.672;23.282;2023-02-10T01:48:45;96337.63;;;-8.27;100.00
35989;BME280;22064;42.672;23.282;2023-02-10T01:51:11;96341.44;;;-8.20;100.00
35989;BME280;22064;42.672;23.282;2023-02-10T01:53:38;96324.00;;;-8.24;100.00
35989;BME280;22064;42.672;23.282;2023-02-10T01:56:05;96343.63;;;-8.14;100.00
35989;BME280;22064;42.672;23.282;2023-02-10T01:58:32;96324.25;;;-7.99;100.00
35989;BME280;22064;42.672;23.282;2023-02-10T02:00:59;96318.28;;;-7.98;100.00
35989;BME280;22064;42.672;23.282;2023-02-10T02:03:25;96326.66;;;-8.11;100.00
35989;BME280;22064;42.672;23.282;2023-02-10T02:05:51;96317.03;;;-8.05;100.00
35989;BME280;22064;42.672;23.282;2023-02-10T02:08:25;96320.53;;;-8.07;100.00
35989;BME280;22064;42.672;23.282;2023-02-10T02:13:59;96276.25;;;-8.29;100.00
35989;BME280;22064;42.672;23.282;2023-02-10T02:19:22;96301.38;;;-8.11;100.00
35989;BME280;22064;42.672;23.282;2023-02-10T02:30:38;96305.59;;;-8.26;100.00
35989;BME280;22064;42.672;23.282;2023-02-10T02:35:50;96303.94;;;-8.42;100.00
35989;BME280;22064;42.672;23.282;2023-02-10T02:38:17;96301.44;;;-8.57;100.00
35989;BME280;22064;42.672;23.282;2023-02-10T02:40:43;96310.34;;;-8.50;100.00
35989;BME280;22064;42.672;23.282;2023-02-10T02:43:09;96310.56;;;-8.55;100.00
35989;BME280;22064;42.672;23.282;2023-02-10T02:45:59;96306.31;;;-8.54;100.00
35989;BME280;22064;42.672;23.282;2023-02-10T02:48:34;96305.63;;;-8.56;100.00
35989;BME280;22064;42.672;23.282;2023-02-10T02:51:10;96295.69;;;-8.59;100.00
35989;BME280;22064;42.672;23.282;2023-02-10T02:54:06;96299.19;;;-8.62;100.00
35989;BME280;22064;42.672;23.282;2023-02-10T02:56:45;96294.38;;;-8.67;100.00
35989;BME280;22064;42.672;23.282;2023-02-10T02:59:51;96298.03;;;-8.56;100.00
35989;BME280;22064;42.672;23.282;2023-02-10T03:02:20;96298.16;;;-8.44;100.00
35989;BME280;22064;42.672;23.282;2023-02-10T03:04:48;96281.72;;;-8.51;100.00
35989;BME280;22064;42.672;23.282;2023-02-10T03:07:14;96288.72;;;-8.40;100.00
35989;BME280;22064;42.672;23.282;2023-02-10T03:09:41;96290.44;;;-8.41;100.00
35989;BME280;22064;42.672;23.282;2023-02-10T03:12:09;96288.41;;;-8.36;100.00
35989;BME280;22064;42.672;23.282;2023-02-10T03:14:38;96285.47;;;-8.28;100.00
35989;BME280;22064;42.672;23.282;2023-02-10T03:17:04;96298.88;;;-8.11;100.00
35989;BME280;22064;42.672;23.282;2023-02-10T03:19:30;96300.41;;;-7.95;100.00
35989;BME280;22064;42.672;23.282;2023-02-10T03:21:56;96293.75;;;-8.26;100.00
35989;BME280;22064;42.672;23.282;2023-02-10T03:24:21;96303.94;;;-8.42;100.00
35989;BME280;22064;42.672;23.282;2023-02-10T03:26:48;96300.78;;;-8.45;100.00
35989;BME280;22064;42.672;23.282;2023-02-10T03:29:15;96286.41;;;-8.45;100.00
35989;BME280;22064;42.672;23.282;2023-02-10T03:31:41;96283.44;;;-8.51;100.00
35989;BME280;22064;42.672;23.282;2023-02-10T03:34:07;96301.13;;;-8.37;100.00
35989;BME280;22064;42.672;23.282;2023-02-10T03:36:33;96294.16;;;-8.48;100.00
35989;BME280;22064;42.672;23.282;2023-02-10T03:39:00;96299.88;;;-8.44;100.00
35989;BME280;22064;42.672;23.282;2023-02-10T03:41:26;96293.22;;;-8.31;100.00
35989;BME280;22064;42.672;23.282;2023-02-10T03:43:51;96281.28;;;-8.29;100.00
35989;BME280;22064;42.672;23.282;2023-02-10T03:46:17;96275.78;;;-8.36;100.00
35989;BME280;22064;42.672;23.282;2023-02-10T03:48:43;96281.13;;;-8.40;100.00
35989;BME280;22064;42.672;23.282;2023-02-10T03:51:09;96277.13;;;-8.44;100.00
35989;BME280;22064;42.672;23.282;2023-02-10T03:53:35;96262.72;;;-8.42;100.00
35989;BME280;22064;42.672;23.282;2023-02-10T03:56:01;96259.63;;;-8.33;100.00
35989;BME280;22064;42.672;23.282;2023-02-10T03:58:27;96271.22;;;-8.15;100.00
35989;BME280;22064;42.672;23.282;2023-02-10T04:00:54;96270.97;;;-8.10;100.00
35989;BME280;22064;42.672;23.282;2023-02-10T04:03:20;96263.75;;;-8.02;100.00
35989;BME280;22064;42.672;23.282;2023-02-10T04:05:46;96270.81;;;-7.93;100.00
35989;BME280;22064;42.672;23.282;2023-02-10T04:08:12;96272.00;;;-7.84;100.00
35989;BME280;22064;42.672;23.282;2023-02-10T04:10:38;96269.56;;;-7.85;100.00
35989;BME280;22064;42.672;23.282;2023-02-10T04:13:04;96270.75;;;-7.77;100.00
35989;BME280;22064;42.672;23.282;2023-02-10T04:15:30;96272.91;;;-7.85;100.00
35989;BME280;22064;42.672;23.282;2023-02-10T04:17:56;96272.16;;;-8.01;100.00
35989;BME280;22064;42.672;23.282;2023-02-10T04:20:23;96275.50;;;-8.45;100.00
35989;BME280;22064;42.672;23.282;2023-02-10T04:22:49;96278.78;;;-8.43;100.00
35989;BME280;22064;42.672;23.282;2023-02-10T04:25:16;96278.41;;;-8.37;100.00
35989;BME280;22064;42.672;23.282;2023-02-10T04:27:41;96270.03;;;-8.68;100.00
35989;BME280;22064;42.672;23.282;2023-02-10T04:30:08;96271.50;;;-8.79;100.00
35989;BME280;22064;42.672;23.282;2023-02-10T04:32:34;96277.69;;;-8.85;100.00
35989;BME280;22064;42.672;23.282;2023-02-10T04:35:00;96274.78;;;-8.93;100.00
35989;BME280;22064;42.672;23.282;2023-02-10T04:37:26;96276.88;;;-9.01;100.00
35989;BME280;22064;42.672;23.282;2023-02-10T04:39:52;96275.66;;;-9.10;100.00
35989;BME280;22064;42.672;23.282;2023-02-10T04:42:18;96279.25;;;-8.98;100.00
35989;BME280;22064;42.672;23.282;2023-02-10T04:44:44;96276.88;;;-9.01;100.00
35989;BME280;22064;42.672;23.282;2023-02-10T04:47:10;96267.84;;;-9.05;100.00
35989;BME280;22064;42.672;23.282;2023-02-10T04:49:35;96285.19;;;-8.99;100.00
35989;BME280;22064;42.672;23.282;2023-02-10T04:52:01;96273.63;;;-9.03;100.00
35989;BME280;22064;42.672;23.282;2023-02-10T04:54:27;96254.44;;;-9.22;100.00
35989;BME280;22064;42.672;23.282;2023-02-10T04:56:53;96280.97;;;-8.99;100.00
35989;BME280;22064;42.672;23.282;2023-02-10T04:59:19;96278.66;;;-9.03;100.00
35989;BME280;22064;42.672;23.282;2023-02-10T05:01:45;96272.97;;;-9.07;100.00
35989;BME280;22064;42.672;23.282;2023-02-10T05:04:10;96286.41;;;-9.07;100.00
35989;BME280;22064;42.672;23.282;2023-02-10T05:06:36;96283.88;;;-9.07;100.00
35989;BME280;22064;42.672;23.282;2023-02-10T05:09:02;96286.97;;;-9.01;100.00
35989;BME280;22064;42.672;23.282;2023-02-10T05:11:28;96286.34;;;-9.05;100.00
35989;BME280;22064;42.672;23.282;2023-02-10T05:13:54;96281.69;;;-9.13;100.00
35989;BME280;22064;42.672;23.282;2023-02-10T05:16:20;96295.19;;;-8.98;100.00
35989;BME280;22064;42.672;23.282;2023-02-10T05:18:45;96301.47;;;-8.89;100.00
35989;BME280;22064;42.672;23.282;2023-02-10T05:21:12;96303.09;;;-8.88;100.00
35989;BME280;22064;42.672;23.282;2023-02-10T05:23:39;96317.44;;;-8.89;100.00
35989;BME280;22064;42.672;23.282;2023-02-10T05:26:05;96322.41;;;-8.87;100.00
35989;BME280;22064;42.672;23.282;2023-02-10T05:28:31;96321.03;;;-8.93;100.00
35989;BME280;22064;42.672;23.282;2023-02-10T05:30:57;96325.09;;;-8.90;100.00
35989;BME280;22064;42.672;23.282;2023-02-10T05:33:23;96321.75;;;-8.91;100.00
35989;BME280;22064;42.672;23.282;2023-02-10T05:35:49;96328.16;;;-8.85;100.00
35989;BME280;22064;42.672;23.282;2023-02-10T05:38:14;96304.22;;;-9.10;100.00
35989;BME280;22064;42.672;23.282;2023-02-10T05:40:40;96331.13;;;-8.93;100.00
35989;BME280;22064;42.672;23.282;2023-02-10T05:43:06;96333.31;;;-8.87;100.00
35989;BME280;22064;42.672;23.282;2023-02-10T05:45:35;96324.94;;;-8.87;100.00
35989;BME280;22064;42.672;23.282;2023-02-10T05:48:01;96336.97;;;-8.76;100.00
35989;BME280;22064;42.672;23.282;2023-02-10T05:50:27;96335.84;;;-8.71;100.00
35989;BME280;22064;42.672;23.282;2023-02-10T05:52:53;96333.47;;;-8.74;100.00
35989;BME280;22064;42.672;23.282;2023-02-10T05:55:18;96337.13;;;-8.64;100.00
35989;BME280;22064;42.672;23.282;2023-02-10T05:57:44;96335.59;;;-8.50;100.00
35989;BME280;22064;42.672;23.282;2023-02-10T06:00:11;96343.88;;;-8.48;100.00
35989;BME280;22064;42.672;23.282;2023-02-10T06:02:40;96339.41;;;-8.43;100.00
35989;BME280;22064;42.672;23.282;2023-02-10T06:05:06;96346.94;;;-8.27;100.00
35989;BME280;22064;42.672;23.282;2023-02-10T06:07:32;96357.25;;;-8.32;100.00
35989;BME280;22064;42.672;23.282;2023-02-10T06:09:57;96358.53;;;-8.39;100.00
35989;BME280;22064;42.672;23.282;2023-02-10T06:12:23;96360.31;;;-8.41;100.00
35989;BME280;22064;42.672;23.282;2023-02-10T06:14:49;96361.78;;;-8.37;100.00
35989;BME280;22064;42.672;23.282;2023-02-10T06:17:15;96361.78;;;-8.37;100.00
35989;BME280;22064;42.672;23.282;2023-02-10T06:19:41;96353.97;;;-8.48;100.00
35989;BME280;22064;42.672;23.282;2023-02-10T06:22:07;96370.97;;;-8.36;100.00
35989;BME280;22064;42.672;23.282;2023-02-10T06:24:35;96372.09;;;-8.26;100.00
35989;BME280;22064;42.672;23.282;2023-02-10T06:27:00;96370.00;;;-8.33;100.00
35989;BME280;22064;42.672;23.282;2023-02-10T06:29:26;96376.59;;;-8.31;100.00
35989;BME280;22064;42.672;23.282;2023-02-10T06:31:52;96373.47;;;-8.20;100.00
35989;BME280;22064;42.672;23.282;2023-02-10T06:34:18;96387.78;;;-8.05;100.00
35989;BME280;22064;42.672;23.282;2023-02-10T06:36:44;96382.50;;;-8.00;100.00
35989;BME280;22064;42.672;23.282;2023-02-10T06:39:10;96379.13;;;-8.01;100.00
35989;BME280;22064;42.672;23.282;2023-02-10T06:41:36;96382.00;;;-7.91;100.00
35989;BME280;22064;42.672;23.282;2023-02-10T06:44:01;96384.34;;;-7.88;100.00
35989;BME280;22064;42.672;23.282;2023-02-10T06:46:27;96387.81;;;-7.75;100.00
35989;BME280;22064;42.672;23.282;2023-02-10T06:48:53;96369.41;;;-7.48;100.00
35989;BME280;22064;42.672;23.282;2023-02-10T06:51:19;96369.88;;;-7.27;100.00
35989;BME280;22064;42.672;23.282;2023-02-10T06:53:45;96370.69;;;-7.27;100.00
35989;BME280;22064;42.672;23.282;2023-02-10T06:56:12;96393.31;;;-7.24;100.00
35989;BME280;22064;42.672;23.282;2023-02-10T06:58:38;96391.97;;;-7.01;100.00
35989;BME280;22064;42.672;23.282;2023-02-10T07:01:12;96383.72;;;-7.18;100.00
35989;BME280;22064;42.672;23.282;2023-02-10T07:03:40;96387.06;;;-7.18;100.00
35989;BME280;22064;42.672;23.282;2023-02-10T07:06:06;96390.78;;;-7.24;100.00
35989;BME280;22064;42.672;23.282;2023-02-10T07:08:32;96403.06;;;-7.17;100.00
35989;BME280;22064;42.672;23.282;2023-02-10T07:10:58;96391.50;;;-7.22;100.00
35989;BME280;22064;42.672;23.282;2023-02-10T07:13:24;96383.81;;;-7.20;100.00
35989;BME280;22064;42.672;23.282;2023-02-10T07:15:49;96376.75;;;-7.15;100.00
35989;BME280;22064;42.672;23.282;2023-02-10T07:18:15;96376.03;;;-7.03;100.00
35989;BME280;22064;42.672;23.282;2023-02-10T07:20:41;96368.44;;;-7.03;100.00
35989;BME280;22064;42.672;23.282;2023-02-10T07:23:07;96362.66;;;-7.05;100.00
35989;BME280;22064;42.672;23.282;2023-02-10T07:25:33;96379.00;;;-6.82;100.00
35989;BME280;22064;42.672;23.282;2023-02-10T07:27:59;96370.03;;;-6.73;100.00
35989;BME280;22064;42.672;23.282;2023-02-10T07:30:25;96379.59;;;-6.49;100.00
35989;BME280;22064;42.672;23.282;2023-02-10T07:32:52;96374.09;;;-6.56;100.00
35989;BME280;22064;42.672;23.282;2023-02-10T07:35:18;96378.91;;;-6.39;100.00
35989;BME280;22064;42.672;23.282;2023-02-10T07:37:44;96373.75;;;-6.37;100.00
35989;BME280;22064;42.672;23.282;2023-02-10T07:40:10;96383.75;;;-6.21;100.00
35989;BME280;22064;42.672;23.282;2023-02-10T07:42:36;96377.31;;;-6.13;100.00
35989;BME280;22064;42.672;23.282;2023-02-10T07:45:20;96366.03;;;-6.36;100.00
35989;BME280;22064;42.672;23.282;2023-02-10T07:47:46;96368.72;;;-6.52;100.00
35989;BME280;22064;42.672;23.282;2023-02-10T07:50:12;96375.00;;;-6.57;100.00
35989;BME280;22064;42.672;23.282;2023-02-10T07:52:38;96377.41;;;-6.41;100.00
35989;BME280;22064;42.672;23.282;2023-02-10T07:55:06;96365.97;;;-6.34;100.00
35989;BME280;22064;42.672;23.282;2023-02-10T07:57:33;96381.59;;;-6.28;100.00
35989;BME280;22064;42.672;23.282;2023-02-10T07:59:58;96384.13;;;-6.28;100.00
35989;BME280;22064;42.672;23.282;2023-02-10T08:02:24;96389.94;;;-6.25;100.00
35989;BME280;22064;42.672;23.282;2023-02-10T08:04:50;96394.09;;;-6.24;100.00
35989;BME280;22064;42.672;23.282;2023-02-10T08:07:19;96389.03;;;-6.24;100.00
35989;BME280;22064;42.672;23.282;2023-02-10T08:09:45;96390.59;;;-6.09;100.00
35989;BME280;22064;42.672;23.282;2023-02-10T08:12:11;96397.19;;;-6.07;100.00
35989;BME280;22064;42.672;23.282;2023-02-10T08:14:37;96383.72;;;-6.07;100.00
35989;BME280;22064;42.672;23.282;2023-02-10T08:17:02;96378.84;;;-6.10;100.00
35989;BME280;22064;42.672;23.282;2023-02-10T08:19:28;96379.50;;;-5.94;100.00
35989;BME280;22064;42.672;23.282;2023-02-10T08:21:54;96363.94;;;-5.89;100.00
35989;BME280;22064;42.672;23.282;2023-02-10T08:24:20;96375.16;;;-5.66;100.00
35989;BME280;22064;42.672;23.282;2023-02-10T08:26:45;96367.84;;;-5.58;100.00
35989;BME280;22064;42.672;23.282;2023-02-10T08:29:11;96383.25;;;-5.61;100.00
35989;BME280;22064;42.672;23.282;2023-02-10T08:31:38;96371.81;;;-5.41;100.00
35989;BME280;22064;42.672;23.282;2023-02-10T08:34:04;96378.63;;;-5.03;100.00
35989;BME280;22064;42.672;23.282;2023-02-10T08:36:30;96380.81;;;-4.86;100.00
35989;BME280;22064;42.672;23.282;2023-02-10T08:38:56;96373.63;;;-4.79;100.00
35989;BME280;22064;42.672;23.282;2023-02-10T08:41:22;96378.28;;;-4.73;100.00
35989;BME280;22064;42.672;23.282;2023-02-10T08:43:48;96379.97;;;-4.61;100.00
35989;BME280;22064;42.672;23.282;2023-02-10T08:46:14;96385.53;;;-4.56;100.00
35989;BME280;22064;42.672;23.282;2023-02-10T08:48:40;96373.19;;;-4.36;100.00
35989;BME280;22064;42.672;23.282;2023-02-10T08:51:08;96375.53;;;-4.70;100.00
35989;BME280;22064;42.672;23.282;2023-02-10T08:53:34;96371.16;;;-4.81;100.00
35989;BME280;22064;42.672;23.282;2023-02-10T08:56:05;96375.66;;;-4.84;100.00
35989;BME280;22064;42.672;23.282;2023-02-10T08:58:31;96370.88;;;-4.76;100.00
35989;BME280;22064;42.672;23.282;2023-02-10T09:00:57;96369.88;;;-4.50;100.00
35989;BME280;22064;42.672;23.282;2023-02-10T09:03:23;96372.19;;;-4.47;100.00
35989;BME280;22064;42.672;23.282;2023-02-10T09:05:49;96365.53;;;-4.36;100.00
35989;BME280;22064;42.672;23.282;2023-02-10T09:08:16;96365.03;;;-4.29;100.00
35989;BME280;22064;42.672;23.282;2023-02-10T09:10:43;96363.53;;;-3.96;100.00
35989;BME280;22064;42.672;23.282;2023-02-10T09:13:09;96357.88;;;-3.64;100.00
35989;BME280;22064;42.672;23.282;2023-02-10T09:15:40;96355.16;;;-3.74;100.00
35989;BME280;22064;42.672;23.282;2023-02-10T09:18:07;96362.03;;;-3.63;100.00
35989;BME280;22064;42.672;23.282;2023-02-10T09:20:34;96360.81;;;-3.82;100.00
35989;BME280;22064;42.672;23.282;2023-02-10T09:23:00;96357.03;;;-3.76;100.00
35989;BME280;22064;42.672;23.282;2023-02-10T09:25:26;96352.97;;;-3.79;100.00
35989;BME280;22064;42.672;23.282;2023-02-10T09:27:52;96343.81;;;-3.81;100.00
35989;BME280;22064;42.672;23.282;2023-02-10T09:30:20;96365.16;;;-3.60;100.00
35989;BME280;22064;42.672;23.282;2023-02-10T09:32:46;96353.97;;;-3.46;100.00
35989;BME280;22064;42.672;23.282;2023-02-10T09:35:12;96343.38;;;-3.17;100.00
35989;BME280;22064;42.672;23.282;2023-02-10T09:37:38;96347.75;;;-2.86;100.00
35989;BME280;22064;42.672;23.282;2023-02-10T09:40:04;96337.88;;;-2.57;97.75
35989;BME280;22064;42.672;23.282;2023-02-10T09:42:45;96338.41;;;-2.42;90.46
35989;BME280;22064;42.672;23.282;2023-02-10T09:45:20;96328.31;;;-2.32;87.54
35989;BME280;22064;42.672;23.282;2023-02-10T09:47:49;96331.50;;;-2.62;82.53
35989;BME280;22064;42.672;23.282;2023-02-10T09:50:26;96337.66;;;-2.76;83.53
35989;BME280;22064;42.672;23.282;2023-02-10T09:55:57;96335.81;;;-2.96;87.53
35989;BME280;22064;42.672;23.282;2023-02-10T09:58:34;96331.28;;;-2.93;85.88
35989;BME280;22064;42.672;23.282;2023-02-10T10:04:01;96319.81;;;-2.87;86.98
35989;BME280;22064;42.672;23.282;2023-02-10T10:06:33;96317.28;;;-2.76;87.42
35989;BME280;22064;42.672;23.282;2023-02-10T10:11:43;96304.47;;;-2.53;83.50
35989;BME280;22064;42.672;23.282;2023-02-10T10:34:03;96274.94;;;-1.82;68.71
35989;BME280;22064;42.672;23.282;2023-02-10T10:36:35;96279.00;;;-1.58;67.18
35989;BME280;22064;42.672;23.282;2023-02-10T10:39:12;96277.53;;;-1.51;66.09
35989;BME280;22064;42.672;23.282;2023-02-10T10:41:41;96273.94;;;-1.49;64.59
35989;BME280;22064;42.672;23.282;2023-02-10T10:44:10;96262.53;;;-1.66;64.85
35989;BME280;22064;42.672;23.282;2023-02-10T10:49:16;96259.38;;;-1.58;64.63
35989;BME280;22064;42.672;23.282;2023-02-10T10:51:42;96263.63;;;-1.37;63.38
35989;BME280;22064;42.672;23.282;2023-02-10T10:54:15;96258.28;;;-1.25;62.77
35989;BME280;22064;42.672;23.282;2023-02-10T10:56:54;96257.38;;;-1.24;61.99
35989;BME280;22064;42.672;23.282;2023-02-10T10:59:29;96255.91;;;-1.17;61.34
35989;BME280;22064;42.672;23.282;2023-02-10T11:01:56;96246.09;;;-1.11;61.77
35989;BME280;22064;42.672;23.282;2023-02-10T11:04:24;96249.41;;;-0.90;60.88
35989;BME280;22064;42.672;23.282;2023-02-10T11:06:53;96253.19;;;-0.75;60.30
35989;BME280;22064;42.672;23.282;2023-02-10T11:09:35;96243.78;;;-0.55;59.51
35989;BME280;22064;42.672;23.282;2023-02-10T11:12:11;96242.72;;;-0.33;58.61
35989;BME280;22064;42.672;23.282;2023-02-10T11:14:43;96242.97;;;-0.16;58.58
35989;BME280;22064;42.672;23.282;2023-02-10T11:17:38;96238.25;;;0.08;59.29
35989;BME280;22064;42.672;23.282;2023-02-10T11:22:37;96226.94;;;0.58;57.17
35989;BME280;22064;42.672;23.282;2023-02-10T11:25:24;96221.66;;;0.87;56.09
35989;BME280;22064;42.672;23.282;2023-02-10T11:27:52;96226.59;;;0.98;55.19
35989;BME280;22064;42.672;23.282;2023-02-10T11:30:35;96213.53;;;1.19;54.53
35989;BME280;22064;42.672;23.282;2023-02-10T11:33:04;96215.75;;;1.32;53.79
35989;BME280;22064;42.672;23.282;2023-02-10T11:35:30;96211.47;;;1.23;52.89
35989;BME280;22064;42.672;23.282;2023-02-10T11:38:20;96206.66;;;1.55;51.72
35989;BME280;22064;42.672;23.282;2023-02-10T11:40:53;96200.00;;;0.99;52.31
35989;BME280;22064;42.672;23.282;2023-02-10T11:43:30;96210.94;;;0.74;52.54
35989;BME280;22064;42.672;23.282;2023-02-10T11:46:00;96192.00;;;0.19;53.71
35989;BME280;22064;42.672;23.282;2023-02-10T11:48:27;96204.19;;;0.45;54.19
35989;BME280;22064;42.672;23.282;2023-02-10T11:51:15;96208.91;;;0.40;54.25
35989;BME280;22064;42.672;23.282;2023-02-10T11:53:45;96207.63;;;0.16;54.39
35989;BME280;22064;42.672;23.282;2023-02-10T11:56:29;96203.56;;;0.23;54.01
35989;BME280;22064;42.672;23.282;2023-02-10T11:59:39;96195.31;;;0.30;54.49
35989;BME280;22064;42.672;23.282;2023-02-10T12:10:41;96186.94;;;0.65;54.06
35989;BME280;22064;42.672;23.282;2023-02-10T12:16:08;96173.06;;;1.13;51.83
35989;BME280;22064;42.672;23.282;2023-02-10T12:18:50;96171.22;;;1.23;51.54
35989;BME280;22064;42.672;23.282;2023-02-10T12:27:07;96169.97;;;2.07;50.54
35989;BME280;22064;42.672;23.282;2023-02-10T12:43:42;96158.50;;;2.53;49.03
35989;BME280;22064;42.672;23.282;2023-02-10T12:46:34;96152.56;;;2.61;48.41
35989;BME280;22064;42.672;23.282;2023-02-10T12:49:12;96136.72;;;2.82;48.25
35989;BME280;22064;42.672;23.282;2023-02-10T12:54:20;96145.00;;;3.10;48.23
35989;BME280;22064;42.672;23.282;2023-02-10T12:57:08;96145.00;;;3.18;47.85
35989;BME280;22064;42.672;23.282;2023-02-10T12:59:56;96145.69;;;3.37;47.99
35989;BME280;22064;42.672;23.282;2023-02-10T13:02:48;96151.31;;;3.65;47.07
35989;BME280;22064;42.672;23.282;2023-02-10T13:05:52;96142.94;;;3.79;46.80
35989;BME280;22064;42.672;23.282;2023-02-10T13:08:39;96148.38;;;4.09;45.89
35989;BME280;22064;42.672;23.282;2023-02-10T13:11:14;96151.63;;;3.78;44.97
35989;BME280;22064;42.672;23.282;2023-02-10T13:13:46;96153.81;;;3.08;46.63
35989;BME280;22064;42.672;23.282;2023-02-10T13:16:18;96140.72;;;2.68;46.95
35989;BME280;22064;42.672;23.282;2023-02-10T13:19:20;96139.63;;;2.95;48.34
35989;BME280;22064;42.672;23.282;2023-02-10T13:22:02;96147.78;;;3.50;47.35
35989;BME280;22064;42.672;23.282;2023-02-10T13:24:40;96150.34;;;3.66;46.28
35989;BME280;22064;42.672;23.282;2023-02-10T13:27:18;96154.94;;;2.97;47.25
35989;BME280;22064;42.672;23.282;2023-02-10T13:35:15;96141.66;;;2.33;48.88
35989;BME280;22064;42.672;23.282;2023-02-10T13:37:45;96160.13;;;2.28;48.96
35989;BME280;22064;42.672;23.282;2023-02-10T13:40:25;96113.31;;;2.17;48.75
35989;BME280;22064;42.672;23.282;2023-02-10T13:43:00;96148.88;;;2.56;48.37
35989;BME280;22064;42.672;23.282;2023-02-10T13:45:29;96146.84;;;2.75;48.80
35989;BME280;22064;42.672;23.282;2023-02-10T13:47:58;96140.34;;;3.22;48.95
35989;BME280;22064;42.672;23.282;2023-02-10T13:50:48;96126.34;;;3.33;47.49
35989;BME280;22064;42.672;23.282;2023-02-10T14:04:30;96141.84;;;4.37;46.39
35989;BME280;22064;42.672;23.282;2023-02-10T14:07:32;96135.75;;;4.30;46.26
35989;BME280;22064;42.672;23.282;2023-02-10T14:12:31;96141.97;;;3.80;46.93
35989;BME280;22064;42.672;23.282;2023-02-10T14:15:18;96135.88;;;3.65;47.16
35989;BME280;22064;42.672;23.282;2023-02-10T14:18:19;96140.69;;;3.84;47.15
35989;BME280;22064;42.672;23.282;2023-02-10T14:20:53;96126.53;;;3.72;46.87
35989;BME280;22064;42.672;23.282;2023-02-10T14:23:20;96134.25;;;3.47;47.75
35989;BME280;22064;42.672;23.282;2023-02-10T14:25:55;96140.69;;;3.68;47.68
35989;BME280;22064;42.672;23.282;2023-02-10T14:28:27;96134.72;;;3.84;47.17
35989;BME280;22064;42.672;23.282;2023-02-10T14:30:57;96141.00;;;3.32;47.39
35989;BME280;22064;42.672;23.282;2023-02-10T14:33:29;96130.34;;;3.03;47.88
35989;BME280;22064;42.672;23.282;2023-02-10T14:35:59;96133.78;;;2.69;48.97
35989;BME280;22064;42.672;23.282;2023-02-10T14:38:32;96127.66;;;2.62;49.37
35989;BME280;22064;42.672;23.282;2023-02-10T14:41:00;96124.75;;;2.65;50.03